createdAt,value
2023-01-26T00:01:11.660Z,62.33
2023-01-26T00:03:38.502Z,63.55
2023-01-26T00:06:05.734Z,62.75
2023-01-26T00:08:39.134Z,64.97
2023-01-26T00:11:06.596Z,64.45
2023-01-26T00:13:33.380Z,64.85
2023-01-26T00:16:00.202Z,63.63
2023-01-26T00:18:26.630Z,61.90
2023-01-26T00:21:00.946Z,63.70
2023-01-26T00:23:28.866Z,61.15
2023-01-26T00:25:55.604Z,62.72
2023-01-26T00:28:22.165Z,60.30
2023-01-26T00:30:48.750Z,64.15
2023-01-26T00:33:15.194Z,63.75
2023-01-26T00:35:44.580Z,62.67
2023-01-26T00:38:14.113Z,65.55
2023-01-26T00:40:40.628Z,62.78
2023-01-26T00:43:07.289Z,61.25
2023-01-26T00:45:35.682Z,62.78
2023-01-26T00:48:02.155Z,63.53
2023-01-26T00:50:28.549Z,65.05
2023-01-26T00:52:54.973Z,62.42
2023-01-26T00:55:21.355Z,62.58
2023-01-26T00:57:49.185Z,62.33
2023-01-26T01:00:16.835Z,63.17
2023-01-26T01:02:43.780Z,62.78
2023-01-26T01:05:10.292Z,61.35
2023-01-26T01:07:36.802Z,62.88
2023-01-26T01:10:03.339Z,61.67
2023-01-26T01:12:29.723Z,63.83
2023-01-26T01:14:56.142Z,62.00
2023-01-26T01:17:22.522Z,65.55
2023-01-26T01:19:48.898Z,64.50
2023-01-26T01:22:15.288Z,64.15
2023-01-26T01:24:41.755Z,65.57
2023-01-26T01:27:08.217Z,66.75
2023-01-26T01:29:34.775Z,67.25
2023-01-26T01:32:01.197Z,66.78
2023-01-26T01:34:27.643Z,67.45
2023-01-26T01:36:54.044Z,65.03
2023-01-26T01:39:20.419Z,64.97
2023-01-26T01:41:46.818Z,65.60
2023-01-26T01:44:21.579Z,64.70
2023-01-26T01:47:01.019Z,65.25
2023-01-26T01:49:30.671Z,66.05
2023-01-26T01:52:02.557Z,62.42
2023-01-26T01:54:33.516Z,63.10
2023-01-26T01:57:03.580Z,62.00
2023-01-26T01:59:31.379Z,62.10
2023-01-26T02:01:57.834Z,63.78
2023-01-26T02:04:24.697Z,65.35
2023-01-26T02:06:57.296Z,64.55
2023-01-26T02:09:50.960Z,64.05
2023-01-26T02:12:20.638Z,64.22
2023-01-26T02:14:47.011Z,66.00
2023-01-26T02:17:13.414Z,67.25
2023-01-26T02:19:46.068Z,65.68
2023-01-26T02:22:20.382Z,63.83
2023-01-26T02:24:46.917Z,65.03
2023-01-26T02:27:13.320Z,62.92
2023-01-26T02:29:39.706Z,64.50
2023-01-26T02:32:06.094Z,64.05
2023-01-26T02:34:32.498Z,65.03
2023-01-26T02:36:59.477Z,67.97
2023-01-26T02:39:45.048Z,64.80
2023-01-26T02:42:30.090Z,64.43
2023-01-26T02:44:56.740Z,67.40
2023-01-26T02:47:23.228Z,64.88
2023-01-26T02:49:52.436Z,64.57
2023-01-26T02:52:25.767Z,67.45
2023-01-26T02:55:11.863Z,64.47
2023-01-26T02:57:38.334Z,64.80
2023-01-26T03:00:08.012Z,67.03
2023-01-26T03:02:34.637Z,65.40
2023-01-26T03:05:01.206Z,66.13
2023-01-26T03:07:28.173Z,62.10
2023-01-26T03:09:54.583Z,64.38
2023-01-26T03:12:20.988Z,63.15
2023-01-26T03:15:07.354Z,62.63
2023-01-26T03:17:33.745Z,60.05
2023-01-26T03:20:18.698Z,60.60
2023-01-26T03:23:03.846Z,61.25
2023-01-26T03:25:48.491Z,62.33
2023-01-26T03:28:14.902Z,61.28
2023-01-26T03:30:41.399Z,62.30
2023-01-26T03:33:07.832Z,61.92
2023-01-26T03:35:34.237Z,63.40
2023-01-26T03:38:00.634Z,61.10
2023-01-26T03:40:45.740Z,63.17
2023-01-26T03:43:30.815Z,62.90
2023-01-26T03:46:15.986Z,62.28
2023-01-26T03:49:01.044Z,59.67
2023-01-26T03:51:46.159Z,59.15
2023-01-26T03:54:31.306Z,58.92
2023-01-26T03:56:57.682Z,60.83
2023-01-26T03:59:38.003Z,63.15
2023-01-26T04:02:28.719Z,62.97
2023-01-26T04:05:13.775Z,60.80
2023-01-26T04:07:59.364Z,60.33
2023-01-26T04:10:26.306Z,59.45
2023-01-26T04:13:11.288Z,61.47
2023-01-26T04:15:56.919Z,59.33
2023-01-26T04:18:42.519Z,60.45
2023-01-26T04:21:27.616Z,61.53
2023-01-26T04:23:57.361Z,59.35
2023-01-26T04:26:36.804Z,60.05
2023-01-26T04:29:11.328Z,61.80
2023-01-26T04:31:38.668Z,63.40
2023-01-26T04:34:06.496Z,63.08
2023-01-26T04:36:34.349Z,64.32
2023-01-26T04:39:00.750Z,62.60
2023-01-26T04:41:28.983Z,64.63
2023-01-26T04:43:55.383Z,61.50
2023-01-26T04:46:22.002Z,61.67
2023-01-26T04:48:48.442Z,63.13
2023-01-26T04:51:16.592Z,62.60
2023-01-26T04:53:43.576Z,62.63
2023-01-26T04:56:20.552Z,62.35
2023-01-26T04:58:46.967Z,60.67
2023-01-26T05:01:13.399Z,61.67
2023-01-26T05:03:39.841Z,61.90
2023-01-26T05:06:06.447Z,61.63
2023-01-26T05:08:32.907Z,61.80
2023-01-26T05:10:59.303Z,61.13
2023-01-26T05:13:25.701Z,61.78
2023-01-26T05:15:52.132Z,60.70
2023-01-26T05:18:18.575Z,57.20
2023-01-26T05:20:44.947Z,57.60
2023-01-26T05:23:11.343Z,55.83
2023-01-26T05:25:37.754Z,55.78
2023-01-26T05:28:04.508Z,55.85
2023-01-26T05:30:31.039Z,54.97
2023-01-26T05:33:05.295Z,54.92
2023-01-26T05:35:31.706Z,51.03
2023-01-26T05:37:58.191Z,55.22
2023-01-26T05:40:26.019Z,56.40
2023-01-26T05:42:53.115Z,54.17
2023-01-26T05:45:19.773Z,57.22
2023-01-26T05:47:46.392Z,56.58
2023-01-26T05:50:13.639Z,55.70
2023-01-26T05:52:40.412Z,55.85
2023-01-26T05:55:07.428Z,55.67
2023-01-26T05:57:33.843Z,54.85
2023-01-26T06:00:00.284Z,54.50
2023-01-26T06:02:27.295Z,54.30
2023-01-26T06:04:53.746Z,55.22
2023-01-26T06:07:20.120Z,53.20
2023-01-26T06:09:47.352Z,52.45
2023-01-26T06:12:18.754Z,56.47
2023-01-26T06:14:47.163Z,55.13
2023-01-26T06:17:14.656Z,55.38
2023-01-26T06:19:41.216Z,54.17
2023-01-26T06:22:11.258Z,54.42
2023-01-26T06:24:37.804Z,55.78
2023-01-26T06:27:06.881Z,51.63
2023-01-26T06:29:33.965Z,52.53
2023-01-26T06:32:00.633Z,52.65
2023-01-26T06:34:27.130Z,54.22
2023-01-26T06:36:53.885Z,54.20
2023-01-26T06:39:20.306Z,53.20
2023-01-26T06:41:46.698Z,53.47
2023-01-26T06:44:13.109Z,51.80
2023-01-26T06:46:39.778Z,54.35
2023-01-26T06:49:06.269Z,54.92
2023-01-26T06:51:43.245Z,55.35
2023-01-26T06:54:10.412Z,55.05
2023-01-26T06:56:36.974Z,52.95
2023-01-26T06:59:03.480Z,53.88
2023-01-26T07:01:33.969Z,55.13
2023-01-26T07:04:00.380Z,52.25
2023-01-26T07:06:26.869Z,54.17
2023-01-26T07:08:53.272Z,53.53
2023-01-26T07:11:20.553Z,53.10
2023-01-26T07:13:47.382Z,54.28
2023-01-26T07:16:15.526Z,54.25
2023-01-26T07:18:42.115Z,52.75
2023-01-26T07:21:13.574Z,54.22
2023-01-26T07:23:40.000Z,53.17
2023-01-26T07:26:06.553Z,53.22
2023-01-26T07:28:34.243Z,53.38
2023-01-26T07:31:01.402Z,52.30
2023-01-26T07:33:31.310Z,52.55
2023-01-26T07:35:58.049Z,53.35
2023-01-26T07:38:25.011Z,52.78
2023-01-26T07:40:53.680Z,54.25
2023-01-26T07:43:20.064Z,54.72
2023-01-26T07:45:53.307Z,53.90
2023-01-26T07:48:20.905Z,53.55
2023-01-26T07:50:48.201Z,53.40
2023-01-26T07:53:15.108Z,56.97
2023-01-26T07:55:43.704Z,54.22
2023-01-26T07:58:13.331Z,56.00
2023-01-26T08:00:39.964Z,55.67
2023-01-26T08:03:06.630Z,56.78
2023-01-26T08:05:33.444Z,53.03
2023-01-26T08:08:00.406Z,53.70
2023-01-26T08:10:28.209Z,56.72
2023-01-26T08:12:54.613Z,52.90
2023-01-26T08:15:21.002Z,55.60
2023-01-26T08:17:47.375Z,57.38
2023-01-26T08:20:14.292Z,54.72
2023-01-26T08:22:40.778Z,53.30
2023-01-26T08:25:07.648Z,53.60
2023-01-26T08:27:34.043Z,52.45
2023-01-26T08:30:00.437Z,52.13
2023-01-26T08:32:29.382Z,52.85
2023-01-26T08:34:55.759Z,55.15
2023-01-26T08:37:22.124Z,52.97
2023-01-26T08:39:48.597Z,52.15
2023-01-26T08:42:15.023Z,52.55
2023-01-26T08:44:41.673Z,50.70
2023-01-26T08:47:08.058Z,49.88
2023-01-26T08:49:34.482Z,47.53
2023-01-26T08:52:00.897Z,47.85
2023-01-26T08:54:27.375Z,50.85
2023-01-26T08:56:55.248Z,48.65
2023-01-26T08:59:21.662Z,49.50
2023-01-26T09:01:50.280Z,48.08
2023-01-26T09:04:18.088Z,46.97
2023-01-26T09:06:44.724Z,48.72
2023-01-26T09:09:13.197Z,47.63
2023-01-26T09:11:40.483Z,48.50
2023-01-26T09:14:07.104Z,46.65
2023-01-26T09:16:33.508Z,47.03
2023-01-26T09:18:59.921Z,45.95
2023-01-26T09:21:26.513Z,48.22
2023-01-26T09:23:52.953Z,47.45
2023-01-26T09:26:19.492Z,45.15
2023-01-26T09:28:50.250Z,45.75
2023-01-26T09:31:16.761Z,47.67
2023-01-26T09:33:45.022Z,44.28
2023-01-26T09:36:12.289Z,46.30
2023-01-26T09:38:38.964Z,43.42
2023-01-26T09:41:10.820Z,42.17
2023-01-26T09:43:46.143Z,43.42
2023-01-26T09:46:38.587Z,42.97
2023-01-26T09:49:25.461Z,42.20
2023-01-26T09:52:02.613Z,41.90
2023-01-26T09:54:50.469Z,41.45
2023-01-26T09:57:19.676Z,41.13
2023-01-26T09:59:55.168Z,43.13
2023-01-26T10:02:42.546Z,38.97
2023-01-26T10:05:16.515Z,40.72
2023-01-26T10:07:45.305Z,40.20
2023-01-26T10:10:20.633Z,40.65
2023-01-26T10:12:47.722Z,41.97
2023-01-26T10:15:30.739Z,43.55
2023-01-26T10:17:59.967Z,42.38
2023-01-26T10:20:49.393Z,40.25
2023-01-26T10:23:28.197Z,40.75
2023-01-26T10:26:02.871Z,40.22
2023-01-26T10:28:36.772Z,40.30
2023-01-26T10:31:05.482Z,40.95
2023-01-26T10:33:34.247Z,38.83
2023-01-26T10:36:06.556Z,39.63
2023-01-26T10:38:32.808Z,41.25
2023-01-26T10:41:16.949Z,40.22
2023-01-26T10:43:53.345Z,40.50
2023-01-26T10:46:26.177Z,39.70
2023-01-26T10:48:57.292Z,40.75
2023-01-26T10:51:27.169Z,40.67
2023-01-26T10:54:20.563Z,42.22
2023-01-26T10:56:55.954Z,38.55
2023-01-26T10:59:46.179Z,41.83
2023-01-26T11:02:12.514Z,42.63
2023-01-26T11:04:39.667Z,43.58
2023-01-26T11:07:39.806Z,39.65
2023-01-26T11:10:27.186Z,38.83
2023-01-26T11:13:12.052Z,39.05
2023-01-26T11:15:40.976Z,38.95
2023-01-26T11:18:16.834Z,35.60
2023-01-26T11:21:03.900Z,34.83
2023-01-26T11:23:58.126Z,35.17
2023-01-26T11:26:37.622Z,35.60
2023-01-26T11:29:19.583Z,34.75
2023-01-26T11:32:07.899Z,36.17
2023-01-26T11:34:55.511Z,35.80
2023-01-26T11:37:31.000Z,32.25
2023-01-26T11:40:25.116Z,33.25
2023-01-26T11:43:32.775Z,34.63
2023-01-26T11:46:21.120Z,32.83
2023-01-26T11:49:18.770Z,34.25
2023-01-26T11:51:54.297Z,33.45
2023-01-26T11:54:30.890Z,33.03
2023-01-26T11:57:04.412Z,31.38
2023-01-26T11:59:40.840Z,29.63
2023-01-26T12:02:32.488Z,31.52
2023-01-26T12:05:03.062Z,31.23
2023-01-26T12:07:31.831Z,32.80
2023-01-26T12:10:00.563Z,29.77
2023-01-26T12:12:38.392Z,31.63
2023-01-26T12:15:13.759Z,30.20
2023-01-26T12:17:45.416Z,30.52
2023-01-26T12:20:26.395Z,29.23
2023-01-26T12:23:00.981Z,29.80
2023-01-26T12:25:30.837Z,28.52
2023-01-26T12:28:15.244Z,30.17
2023-01-26T12:30:54.908Z,29.40
2023-01-26T12:33:21.404Z,30.27
2023-01-26T12:36:05.148Z,29.48
2023-01-26T12:38:47.188Z,27.73
2023-01-26T12:41:19.461Z,28.95
2023-01-26T12:44:05.750Z,27.85
2023-01-26T12:46:35.315Z,28.45
2023-01-26T12:49:13.721Z,29.67
2023-01-26T12:51:44.385Z,28.83
2023-01-26T12:54:22.040Z,30.48
2023-01-26T12:56:54.932Z,30.00
2023-01-26T12:59:46.454Z,28.92
2023-01-26T13:02:20.603Z,32.30
2023-01-26T13:04:49.138Z,27.80
2023-01-26T13:07:42.154Z,27.80
2023-01-26T13:15:28.320Z,26.67
2023-01-26T13:18:01.427Z,25.92
2023-01-26T13:20:42.198Z,28.33
2023-01-26T13:23:37.660Z,25.40
2023-01-26T13:26:16.783Z,26.52
2023-01-26T13:28:44.331Z,27.10
2023-01-26T13:31:11.269Z,25.90
2023-01-26T13:33:38.028Z,26.70
2023-01-26T13:36:15.871Z,26.50
2023-01-26T13:38:44.211Z,25.58
2023-01-26T13:41:15.676Z,26.10
2023-01-26T13:43:44.777Z,27.48
2023-01-26T13:46:32.008Z,23.67
2023-01-26T13:48:58.454Z,24.63
2023-01-26T13:51:27.633Z,26.35
2023-01-26T13:53:58.223Z,24.48
2023-01-26T13:56:35.488Z,24.42
2023-01-26T13:59:11.362Z,29.02
2023-01-26T14:01:49.019Z,27.83
2023-01-26T14:04:20.864Z,29.95
2023-01-26T14:06:51.875Z,25.90
2023-01-26T14:09:18.463Z,24.50
2023-01-26T14:11:55.865Z,25.33
2023-01-26T14:14:30.383Z,22.23
2023-01-26T14:17:00.737Z,23.58
2023-01-26T14:19:28.039Z,26.33
2023-01-26T14:22:00.940Z,28.00
2023-01-26T14:24:33.789Z,30.27
2023-01-26T14:27:01.083Z,25.48
2023-01-26T14:29:29.477Z,22.45
2023-01-26T14:31:59.930Z,24.00
2023-01-26T14:34:28.517Z,22.85
2023-01-26T14:37:15.263Z,21.85
2023-01-26T14:39:44.749Z,22.85
2023-01-26T14:42:19.377Z,20.50
2023-01-26T14:44:46.215Z,22.60
2023-01-26T14:47:18.219Z,21.60
2023-01-26T14:49:56.435Z,22.35
2023-01-26T14:52:26.232Z,20.45
2023-01-26T14:54:54.565Z,21.23
2023-01-26T14:57:24.051Z,21.70
2023-01-26T14:59:52.644Z,24.52
2023-01-26T15:02:41.623Z,27.80
2023-01-26T15:05:17.190Z,23.63
2023-01-26T15:07:51.781Z,21.05
2023-01-26T15:10:40.889Z,22.83
2023-01-26T15:13:20.427Z,19.98
2023-01-26T15:15:48.985Z,22.88
2023-01-26T15:18:20.421Z,23.00
2023-01-26T15:21:00.369Z,22.02
2023-01-26T15:23:28.713Z,24.30
2023-01-26T15:25:55.171Z,27.83
2023-01-26T15:28:25.934Z,25.20
2023-01-26T15:30:55.125Z,28.92
2023-01-26T15:33:41.177Z,26.15
2023-01-26T15:36:43.910Z,28.83
2023-01-26T15:39:17.296Z,24.80
2023-01-26T15:42:01.585Z,25.83
2023-01-26T15:44:27.999Z,24.27
2023-01-26T15:46:56.458Z,26.33
2023-01-26T15:49:23.371Z,26.45
2023-01-26T15:51:49.793Z,25.40
2023-01-26T15:54:16.287Z,24.23
2023-01-26T15:56:43.097Z,29.60
2023-01-26T15:59:09.482Z,24.17
2023-01-26T16:01:35.892Z,30.95
2023-01-26T16:04:02.292Z,26.33
2023-01-26T16:06:31.378Z,22.25
2023-01-26T16:08:58.069Z,21.75
2023-01-26T16:11:34.224Z,24.95
2023-01-26T16:14:04.100Z,26.58
2023-01-26T16:16:32.229Z,23.60
2023-01-26T16:32:51.403Z,24.77
2023-01-26T16:35:20.847Z,21.25
2023-01-26T16:37:47.470Z,20.15
2023-01-26T16:40:16.885Z,22.33
2023-01-26T16:42:53.849Z,20.90
2023-01-26T16:45:23.813Z,27.17
2023-01-26T16:47:54.802Z,26.58
2023-01-26T16:50:25.070Z,24.33
2023-01-26T16:52:51.971Z,23.10
2023-01-26T16:55:18.959Z,22.23
2023-01-26T16:57:47.670Z,19.55
2023-01-26T17:00:16.487Z,23.50
2023-01-26T17:02:43.708Z,20.55
2023-01-26T17:05:19.164Z,23.13
2023-01-26T17:08:01.786Z,22.80
2023-01-26T17:12:54.495Z,22.73
2023-01-26T17:15:20.865Z,21.38
2023-01-26T17:17:51.267Z,24.30
2023-01-26T17:20:30.667Z,24.88
2023-01-26T17:22:57.086Z,23.45
2023-01-26T17:25:23.467Z,25.73
2023-01-26T17:27:49.888Z,24.63
2023-01-26T17:30:17.739Z,26.40
2023-01-26T17:32:44.436Z,25.38
2023-01-26T17:35:11.702Z,24.45
2023-01-26T17:37:39.379Z,25.58
2023-01-26T17:40:07.280Z,23.95
2023-01-26T17:42:34.916Z,25.27
2023-01-26T17:45:01.835Z,27.55
2023-01-26T17:47:28.257Z,37.05
2023-01-26T17:49:54.606Z,37.13
2023-01-26T17:52:20.969Z,32.45
2023-01-26T17:54:47.322Z,46.13
2023-01-26T17:57:15.072Z,37.70
2023-01-26T17:59:41.494Z,40.28
2023-01-26T18:02:10.611Z,35.95
2023-01-26T18:04:37.039Z,29.15
2023-01-26T18:07:03.786Z,35.63
2023-01-26T18:09:30.395Z,27.83
2023-01-26T18:11:56.756Z,28.60
2023-01-26T18:14:23.144Z,27.50
2023-01-26T18:16:49.601Z,26.17
2023-01-26T18:19:15.992Z,25.27
2023-01-26T18:21:42.483Z,27.30
2023-01-26T18:24:10.543Z,25.85
2023-01-26T18:26:37.845Z,23.75
2023-01-26T18:29:05.644Z,32.58
2023-01-26T18:31:37.935Z,27.38
2023-01-26T18:34:04.510Z,29.02
2023-01-26T18:36:31.907Z,28.83
2023-01-26T18:39:00.443Z,29.30
2023-01-26T18:41:27.839Z,31.40
2023-01-26T18:43:55.424Z,27.88
2023-01-26T18:46:22.442Z,30.35
2023-01-26T18:48:49.354Z,30.67
2023-01-26T18:51:15.777Z,30.13
2023-01-26T18:53:42.296Z,29.73
2023-01-26T18:56:11.109Z,30.17
2023-01-26T18:58:39.183Z,26.83
2023-01-26T19:01:09.891Z,26.27
2023-01-26T19:03:37.811Z,26.98
2023-01-26T19:06:05.373Z,29.65
2023-01-26T19:08:31.974Z,28.85
2023-01-26T19:11:04.432Z,26.80
2023-01-26T19:15:57.270Z,27.10
2023-01-26T19:18:23.674Z,26.17
2023-01-26T19:20:57.479Z,27.27
2023-01-26T19:23:23.876Z,25.88
2023-01-26T19:25:50.437Z,24.20
2023-01-26T19:28:16.988Z,27.65
2023-01-26T19:30:44.300Z,27.70
2023-01-26T19:33:28.780Z,25.15
2023-01-26T19:35:56.153Z,22.17
2023-01-26T19:38:22.911Z,23.67
2023-01-26T19:40:50.783Z,23.80
2023-01-26T19:43:18.956Z,23.70
2023-01-26T19:45:53.804Z,23.17
2023-01-26T19:48:25.445Z,23.67
2023-01-26T19:51:03.896Z,22.87
2023-01-26T19:53:34.740Z,33.00
2023-01-26T19:56:09.154Z,36.22
2023-01-26T19:58:36.391Z,38.05
2023-01-26T20:01:06.016Z,30.55
2023-01-26T20:03:32.510Z,35.63
2023-01-26T20:05:59.113Z,38.83
2023-01-26T20:08:26.316Z,40.38
2023-01-26T20:10:52.721Z,37.90
2023-01-26T20:13:19.477Z,40.28
2023-01-26T20:15:45.926Z,40.53
2023-01-26T20:18:12.283Z,39.25
2023-01-26T20:20:39.297Z,38.50
2023-01-26T20:23:07.420Z,36.65
2023-01-26T20:25:35.801Z,36.88
2023-01-26T20:28:02.331Z,33.40
2023-01-26T20:30:28.729Z,36.22
2023-01-26T20:32:55.275Z,35.08
2023-01-26T20:35:21.659Z,34.92
2023-01-26T20:37:48.361Z,33.83
2023-01-26T20:40:15.152Z,33.28
2023-01-26T20:42:41.604Z,34.28
2023-01-26T20:45:08.593Z,31.75
2023-01-26T20:47:38.048Z,33.53
2023-01-26T20:50:05.607Z,26.88
2023-01-26T20:52:32.091Z,27.85
2023-01-26T20:54:58.737Z,29.20
2023-01-26T20:57:25.147Z,29.40
2023-01-26T20:59:51.553Z,28.73
2023-01-26T21:02:17.935Z,27.75
2023-01-26T21:04:44.342Z,26.55
2023-01-26T21:07:10.735Z,24.52
2023-01-26T21:09:37.160Z,24.42
2023-01-26T21:12:03.834Z,27.55
2023-01-26T21:14:30.359Z,29.00
2023-01-26T21:16:57.270Z,30.92
2023-01-26T21:19:23.725Z,35.42
2023-01-26T21:21:50.095Z,35.92
2023-01-26T21:24:16.494Z,37.10
2023-01-26T21:26:42.886Z,39.92
2023-01-26T21:29:13.179Z,38.60
2023-01-26T21:31:39.599Z,34.53
2023-01-26T21:34:06.046Z,36.15
2023-01-26T21:36:34.024Z,36.50
2023-01-26T21:39:00.873Z,38.25
2023-01-26T21:41:51.122Z,36.47
2023-01-26T21:44:20.287Z,33.85
2023-01-26T21:46:48.707Z,28.33
2023-01-26T21:49:15.731Z,26.95
2023-01-26T21:52:20.572Z,25.90
2023-01-26T21:54:46.979Z,26.48
2023-01-26T21:57:32.290Z,26.73
2023-01-26T21:59:58.689Z,28.40
2023-01-26T22:02:25.075Z,29.30
2023-01-26T22:04:51.618Z,30.02
2023-01-26T22:07:18.034Z,29.63
2023-01-26T22:09:44.397Z,27.92
2023-01-26T22:12:10.773Z,28.30
2023-01-26T22:14:37.173Z,28.77
2023-01-26T22:17:03.569Z,30.55
2023-01-26T22:19:29.937Z,29.27
2023-01-26T22:21:56.564Z,28.38
2023-01-26T22:24:23.031Z,29.35
2023-01-26T22:26:49.446Z,29.77
2023-01-26T22:29:15.925Z,30.25
2023-01-26T22:31:42.437Z,30.02
2023-01-26T22:34:10.559Z,31.25
2023-01-26T22:36:37.040Z,30.50
2023-01-26T22:39:03.628Z,34.35
2023-01-26T22:41:30.526Z,31.25
2023-01-26T22:43:58.925Z,33.97
2023-01-26T22:46:26.315Z,31.95
2023-01-26T22:48:52.808Z,32.28
2023-01-26T22:51:24.911Z,32.28
2023-01-26T22:53:52.779Z,31.48
2023-01-26T22:56:19.860Z,30.30
2023-01-26T22:58:59.085Z,32.78
2023-01-26T23:01:31.171Z,31.55
2023-01-26T23:03:58.272Z,32.13
2023-01-26T23:06:25.099Z,31.45
2023-01-26T23:08:51.509Z,29.58
2023-01-26T23:11:20.826Z,28.60
2023-01-26T23:13:48.622Z,28.23
2023-01-26T23:16:15.273Z,26.00
2023-01-26T23:18:41.982Z,27.13
2023-01-26T23:21:09.419Z,25.20
2023-01-26T23:23:35.997Z,24.92
2023-01-26T23:26:03.369Z,24.00
2023-01-26T23:28:33.595Z,24.63
2023-01-26T23:31:00.705Z,23.38
2023-01-26T23:33:29.531Z,26.27
2023-01-26T23:35:56.575Z,24.25
2023-01-26T23:38:24.869Z,25.35
2023-01-26T23:40:51.853Z,24.83
2023-01-26T23:43:18.798Z,26.02
2023-01-26T23:45:46.989Z,26.55
2023-01-26T23:48:13.520Z,26.10
2023-01-26T23:50:40.398Z,26.80
2023-01-26T23:53:07.357Z,24.90
2023-01-26T23:55:34.523Z,26.58
2023-01-26T23:58:00.965Z,24.20
